Time;durP1;ratioP1;P1;durP2;ratioP2;P2;SDS_P1;SDS_P2;PMS_P1;PMS_P2;Temp;Humidity;BMP_temperature;BMP_pressure;BME280_temperature;BME280_humidity;BME280_pressure;Samples;Min_cycle;Max_cycle;Signal;HPM_P1;HPM_P2
2022/12/09 00:01:25;;;;;;;44.53;15.88;;;-0.50;99.90;;;;;;5104412;28;20039;-84
2022/12/09 00:03:53;;;;;;;38.45;16.25;;;-0.50;99.90;;;;;;5108322;28;20096;-82
2022/12/09 00:06:22;;;;;;;45.83;16.67;;;-0.50;99.90;;;;;;5109851;28;20098;-83
2022/12/09 00:08:48;;;;;;;44.20;16.98;;;-0.60;99.90;;;;;;5110678;28;20058;-82
2022/12/09 00:11:14;;;;;;;44.75;16.13;;;-0.70;99.90;;;;;;5070855;28;20200;-82
2022/12/09 00:13:40;;;;;;;33.95;14.18;;;-0.70;99.90;;;;;;5075607;28;20051;-82
2022/12/09 00:16:08;;;;;;;38.95;14.50;;;-0.80;99.90;;;;;;5076573;28;20048;-82
2022/12/09 00:18:35;;;;;;;38.03;13.50;;;-0.90;99.90;;;;;;5092730;28;20054;-83
2022/12/09 00:21:26;;;;;;;38.53;13.38;;;-0.90;99.90;;;;;;5091985;28;20162;-83
2022/12/09 00:23:53;;;;;;;36.45;13.30;;;-0.90;99.90;;;;;;5108019;28;20043;-83
2022/12/09 00:26:21;;;;;;;41.63;15.02;;;-0.90;99.90;;;;;;5092149;28;20062;-83
2022/12/09 00:28:48;;;;;;;42.88;16.80;;;-0.90;99.90;;;;;;5109618;28;20052;-83
2022/12/09 00:31:16;;;;;;;39.47;15.32;;;-0.90;99.90;;;;;;5092213;28;20051;-82
2022/12/09 00:33:43;;;;;;;31.25;13.57;;;-0.80;99.90;;;;;;5099001;28;20051;-82
2022/12/09 00:36:11;;;;;;;40.83;14.80;;;-0.70;99.90;;;;;;5089421;28;20043;-83
2022/12/09 00:38:37;;;;;;;44.85;15.65;;;-0.60;99.90;;;;;;5091494;28;20048;-82
2022/12/09 00:41:03;;;;;;;49.97;16.60;;;-0.50;99.90;;;;;;5089772;28;20043;-84
2022/12/09 00:43:29;;;;;;;45.05;15.13;;;-0.40;99.90;;;;;;5086780;28;20048;-86
2022/12/09 00:45:55;;;;;;;40.88;15.23;;;-0.30;99.90;;;;;;5073090;27;20039;-83
2022/12/09 00:48:21;;;;;;;44.92;16.85;;;-0.20;99.90;;;;;;5058846;28;20699;-82
2022/12/09 00:50:47;;;;;;;51.75;16.98;;;-0.20;99.90;;;;;;5110042;27;20044;-83
2022/12/09 00:53:13;;;;;;;48.03;17.40;;;-0.20;99.90;;;;;;5112671;27;20036;-82
2022/12/09 00:55:39;;;;;;;42.53;17.02;;;-0.20;99.90;;;;;;5057981;27;20047;-83
2022/12/09 00:58:04;;;;;;;48.97;17.40;;;-0.20;99.90;;;;;;5101983;28;20503;-86
2022/12/09 01:00:30;;;;;;;57.40;17.38;;;-0.30;99.90;;;;;;5080996;28;20039;-84
2022/12/09 01:02:56;;;;;;;47.60;16.33;;;-0.40;99.90;;;;;;5096195;27;20039;-82
2022/12/09 01:05:22;;;;;;;56.97;18.48;;;-0.40;99.90;;;;;;5091987;28;20191;-82
2022/12/09 01:07:49;;;;;;;55.55;17.95;;;-0.50;99.90;;;;;;5092126;28;20047;-83
2022/12/09 01:10:14;;;;;;;42.53;15.70;;;-0.60;99.90;;;;;;5108396;27;20488;-83
2022/12/09 01:12:40;;;;;;;48.58;16.58;;;-0.60;99.90;;;;;;5117358;27;20088;-83
2022/12/09 01:15:06;;;;;;;48.55;15.40;;;-0.70;99.90;;;;;;5071811;28;20123;-85
2022/12/09 01:17:32;;;;;;;52.95;17.88;;;-0.80;99.90;;;;;;5075511;28;20477;-82
2022/12/09 01:19:58;;;;;;;50.63;16.50;;;-0.90;99.90;;;;;;5067101;28;20055;-84
2022/12/09 01:22:23;;;;;;;51.67;16.92;;;-0.90;99.90;;;;;;5069220;28;20061;-83
2022/12/09 01:24:49;;;;;;;49.20;16.52;;;-0.80;99.90;;;;;;5090234;28;20051;-83
2022/12/09 01:27:15;;;;;;;45.13;16.23;;;-0.80;99.90;;;;;;5084813;28;20051;-83
2022/12/09 01:29:40;;;;;;;46.03;16.10;;;-0.80;99.90;;;;;;5125485;27;20056;-83
2022/12/09 01:32:06;;;;;;;48.55;16.55;;;-0.90;99.90;;;;;;5112015;27;20071;-82
2022/12/09 01:34:32;;;;;;;45.65;15.57;;;-0.90;99.90;;;;;;5108392;28;20489;-82
2022/12/09 01:36:57;;;;;;;41.20;14.63;;;-0.90;99.90;;;;;;5088759;28;20044;-82
2022/12/09 01:39:23;;;;;;;54.85;16.33;;;-0.90;99.90;;;;;;5061399;28;20762;-82
2022/12/09 01:41:50;;;;;;;54.60;17.40;;;-0.80;99.90;;;;;;5090205;28;20051;-84
2022/12/09 01:44:19;;;;;;;60.92;17.88;;;-0.70;99.90;;;;;;5108401;28;20054;-83
2022/12/09 01:46:46;;;;;;;51.25;16.23;;;-0.70;99.90;;;;;;5103115;28;20500;-84
2022/12/09 01:49:18;;;;;;;54.08;17.02;;;-0.60;99.90;;;;;;5081654;28;20392;-84
2022/12/09 01:51:46;;;;;;;47.30;17.83;;;-0.60;99.90;;;;;;5085056;28;20062;-83
2022/12/09 01:54:12;;;;;;;55.92;17.73;;;-0.50;99.90;;;;;;5089277;28;20043;-86
2022/12/09 01:56:39;;;;;;;51.92;17.38;;;-0.60;99.90;;;;;;5099762;28;20435;-83
2022/12/09 01:59:09;;;;;;;60.80;18.60;;;-0.50;99.90;;;;;;5093157;28;20095;-83
2022/12/09 02:01:36;;;;;;;58.83;17.38;;;-0.50;99.90;;;;;;5100586;28;20068;-82
2022/12/09 02:04:02;;;;;;;63.17;17.95;;;-0.50;99.90;;;;;;5077523;28;20059;-82
2022/12/09 02:06:28;;;;;;;53.30;17.55;;;-0.50;99.90;;;;;;5108325;28;20777;-82
2022/12/09 02:08:54;;;;;;;51.75;17.25;;;-0.50;99.90;;;;;;5108709;28;20079;-82
2022/12/09 02:11:20;;;;;;;64.70;18.48;;;-0.50;99.90;;;;;;5090053;28;20486;-84
2022/12/09 02:13:59;;;;;;;58.08;18.52;;;-0.40;99.90;;;;;;5082011;28;20073;-82
2022/12/09 02:16:27;;;;;;;51.45;16.83;;;-0.40;99.90;;;;;;5079294;28;20043;-83
2022/12/09 02:19:12;;;;;;;55.92;17.30;;;-0.40;99.90;;;;;;5109639;28;20043;-83
2022/12/09 02:21:58;;;;;;;55.03;17.00;;;-0.30;99.90;;;;;;5105766;28;20386;-83
2022/12/09 02:24:49;;;;;;;64.50;18.25;;;-0.40;99.90;;;;;;5079295;28;20047;-83
2022/12/09 02:27:31;;;;;;;70.72;18.75;;;-0.30;99.90;;;;;;5092408;28;20036;-83
2022/12/09 02:30:15;;;;;;;60.38;18.10;;;-0.40;99.90;;;;;;5095739;28;20052;-82
2022/12/09 02:33:06;;;;;;;56.15;17.33;;;-0.30;99.90;;;;;;5121324;28;20054;-83
2022/12/09 02:35:37;;;;;;;45.95;15.63;;;-0.40;99.90;;;;;;5087604;28;20047;-83
2022/12/09 02:38:12;;;;;;;57.28;17.63;;;-0.40;99.90;;;;;;5078731;28;20044;-82
2022/12/09 02:40:40;;;;;;;55.78;17.60;;;-0.40;99.90;;;;;;5085051;28;20051;-82
2022/12/09 02:43:09;;;;;;;64.05;18.05;;;-0.50;99.90;;;;;;5110785;28;20126;-82
2022/12/09 02:45:36;;;;;;;59.45;17.75;;;-0.50;99.90;;;;;;5118193;28;20130;-83
2022/12/09 02:48:03;;;;;;;54.72;16.88;;;-0.40;99.90;;;;;;5091490;28;20112;-83
2022/12/09 02:50:33;;;;;;;61.60;18.35;;;-0.40;99.90;;;;;;5092929;27;20790;-82
2022/12/09 02:53:03;;;;;;;60.88;19.02;;;-0.40;99.90;;;;;;5115257;27;20149;-82
2022/12/09 02:55:31;;;;;;;67.45;18.98;;;-0.40;99.90;;;;;;5109029;28;20047;-82
2022/12/09 02:57:59;;;;;;;67.30;18.60;;;-0.40;99.90;;;;;;5084412;28;20040;-82
2022/12/09 03:00:26;;;;;;;58.80;18.52;;;-0.50;99.90;;;;;;5090341;28;20107;-83
2022/12/09 03:02:57;;;;;;;63.03;18.40;;;-0.50;99.90;;;;;;5072047;27;20122;-83
2022/12/09 03:05:35;;;;;;;66.63;19.08;;;-0.50;99.90;;;;;;5097574;27;20088;-85
2022/12/09 03:08:29;;;;;;;57.42;18.15;;;-0.50;99.90;;;;;;5098791;27;20062;-82
2022/12/09 03:11:10;;;;;;;58.42;17.40;;;-0.50;99.90;;;;;;5123486;27;20104;-83
2022/12/09 03:14:00;;;;;;;57.72;16.92;;;-0.50;99.90;;;;;;5095399;27;20082;-82
2022/12/09 03:16:31;;;;;;;60.38;17.88;;;-0.50;99.90;;;;;;5111160;27;20039;-83
2022/12/09 03:19:15;;;;;;;49.72;17.08;;;-0.50;99.90;;;;;;5098139;27;20047;-82
2022/12/09 03:21:44;;;;;;;54.40;17.85;;;-0.70;99.90;;;;;;5085002;27;20069;-82
2022/12/09 03:24:13;;;;;;;55.92;16.48;;;-0.80;99.90;;;;;;5115081;27;20499;-85
2022/12/09 03:26:40;;;;;;;55.47;17.92;;;-0.80;99.90;;;;;;5126037;27;20050;-82
2022/12/09 03:29:11;;;;;;;60.33;17.83;;;-0.90;99.90;;;;;;5117039;27;20055;-82
2022/12/09 03:31:38;;;;;;;48.90;16.73;;;-0.90;99.90;;;;;;5113339;27;20176;-82
2022/12/09 03:34:08;;;;;;;57.45;16.80;;;-1.00;99.90;;;;;;5115068;27;20476;-82
2022/12/09 03:36:38;;;;;;;62.90;17.05;;;-0.90;99.90;;;;;;5089811;28;20059;-83
2022/12/09 03:39:14;;;;;;;62.28;17.05;;;-0.90;99.90;;;;;;5116363;27;20031;-82
2022/12/09 03:41:46;;;;;;;63.33;17.40;;;-0.80;99.90;;;;;;5099629;27;20138;-83
2022/12/09 03:44:18;;;;;;;57.40;17.75;;;-0.90;99.90;;;;;;5098443;27;20051;-82
2022/12/09 03:46:45;;;;;;;60.67;17.55;;;-0.90;99.90;;;;;;5095260;27;20098;-82
2022/12/09 03:49:11;;;;;;;55.60;15.85;;;-0.90;99.90;;;;;;5116833;27;20039;-83
2022/12/09 03:51:43;;;;;;;67.07;17.90;;;-1.00;99.90;;;;;;5097802;27;20047;-83
2022/12/09 03:54:19;;;;;;;54.03;16.73;;;-1.00;99.90;;;;;;5096143;27;20123;-83
2022/12/09 03:56:49;;;;;;;61.25;17.38;;;-1.00;99.90;;;;;;5096009;27;20484;-83
2022/12/09 03:59:15;;;;;;;56.97;17.30;;;-1.10;99.90;;;;;;5115341;27;20039;-82
2022/12/09 04:01:43;;;;;;;59.53;17.23;;;-1.20;99.90;;;;;;5062963;27;20439;-82
2022/12/09 04:04:10;;;;;;;60.33;17.13;;;-1.20;99.90;;;;;;5093892;27;20563;-82
2022/12/09 04:06:36;;;;;;;54.80;16.75;;;-1.20;99.90;;;;;;5088858;28;20050;-82
2022/12/09 04:09:03;;;;;;;54.72;17.20;;;-1.30;99.90;;;;;;5090572;27;20479;-82
2022/12/09 04:11:30;;;;;;;57.72;16.80;;;-1.30;99.90;;;;;;5089745;28;20123;-82
2022/12/09 04:13:56;;;;;;;53.13;17.30;;;-1.40;99.90;;;;;;5074892;27;20096;-82
2022/12/09 04:16:21;;;;;;;55.33;17.08;;;-1.30;99.90;;;;;;5079439;27;20039;-82
2022/12/09 04:18:47;;;;;;;58.88;17.20;;;-1.40;99.90;;;;;;5117069;27;20085;-82
2022/12/09 04:21:13;;;;;;;52.15;16.05;;;-1.60;99.90;;;;;;5113145;27;20439;-82
2022/12/09 04:23:38;;;;;;;66.10;17.63;;;-1.60;99.90;;;;;;5094609;27;20043;-81
2022/12/09 04:26:04;;;;;;;57.10;16.42;;;-1.70;99.90;;;;;;5094759;27;20035;-82
2022/12/09 04:28:30;;;;;;;60.55;16.90;;;-1.70;99.90;;;;;;5092590;27;20051;-82
2022/12/09 04:30:57;;;;;;;54.80;16.30;;;-1.80;99.90;;;;;;5112360;27;20125;-82
2022/12/09 04:33:23;;;;;;;63.10;17.52;;;-1.90;99.90;;;;;;5111471;27;20042;-81
2022/12/09 04:35:49;;;;;;;55.70;15.95;;;-1.90;99.90;;;;;;5075593;28;20092;-82
2022/12/09 04:38:14;;;;;;;57.08;16.40;;;-2.00;99.90;;;;;;5108742;27;20147;-82
2022/12/09 04:40:40;;;;;;;57.97;16.00;;;-2.10;99.90;;;;;;5077964;27;20457;-81
2022/12/09 04:43:06;;;;;;;46.58;14.90;;;-2.10;99.90;;;;;;5079683;27;20476;-81
2022/12/09 04:45:31;;;;;;;54.65;16.80;;;-2.10;99.90;;;;;;5080063;27;20443;-81
2022/12/09 04:47:58;;;;;;;60.90;16.73;;;-2.20;99.90;;;;;;5095173;27;20843;-82
2022/12/09 04:50:24;;;;;;;56.58;17.15;;;-2.20;99.90;;;;;;5101517;27;20047;-82
2022/12/09 04:52:49;;;;;;;53.22;15.73;;;-2.20;99.90;;;;;;5112425;27;20039;-82
2022/12/09 04:55:15;;;;;;;54.95;15.75;;;-2.30;99.90;;;;;;5114625;27;20576;-82
2022/12/09 04:57:41;;;;;;;55.75;16.08;;;-2.30;99.90;;;;;;5078396;27;20540;-82
2022/12/09 05:00:07;;;;;;;56.00;16.98;;;-2.30;99.90;;;;;;5113916;27;20043;-81
2022/12/09 05:02:33;;;;;;;52.55;16.75;;;-2.40;99.90;;;;;;5093729;27;20062;-82
2022/12/09 05:05:00;;;;;;;57.60;16.63;;;-2.40;99.90;;;;;;5097838;27;20046;-82
2022/12/09 05:07:32;;;;;;;49.80;15.43;;;-2.50;99.90;;;;;;5096193;27;20039;-81
2022/12/09 05:09:58;;;;;;;54.92;15.85;;;-2.50;99.90;;;;;;5095782;27;20054;-81
2022/12/09 05:12:24;;;;;;;57.08;16.75;;;-2.40;99.90;;;;;;5077938;27;20039;-82
2022/12/09 05:14:50;;;;;;;56.88;17.63;;;-2.60;99.90;;;;;;5076905;28;20400;-81
2022/12/09 05:17:15;;;;;;;58.47;17.63;;;-2.50;99.90;;;;;;5089941;27;20035;-81
2022/12/09 05:19:41;;;;;;;54.83;18.15;;;-2.50;99.90;;;;;;5112815;27;20114;-84
2022/12/09 05:22:07;;;;;;;59.42;17.15;;;-2.50;99.90;;;;;;5096370;27;20544;-82
2022/12/09 05:24:32;;;;;;;58.08;16.25;;;-2.50;99.90;;;;;;5090542;27;20051;-81
2022/12/09 05:26:58;;;;;;;60.25;17.27;;;-2.50;99.90;;;;;;5086867;27;20077;-81
2022/12/09 05:29:24;;;;;;;56.33;17.45;;;-2.50;99.90;;;;;;5095816;27;20050;-84
2022/12/09 05:31:50;;;;;;;59.47;19.00;;;-2.50;99.90;;;;;;5093797;27;20039;-82
2022/12/09 05:34:16;;;;;;;59.10;17.95;;;-2.50;99.90;;;;;;5094560;27;20054;-82
2022/12/09 05:36:42;;;;;;;72.95;18.60;;;-2.50;99.90;;;;;;5083575;27;20409;-84
2022/12/09 05:39:08;;;;;;;62.92;18.65;;;-2.50;99.90;;;;;;5105353;27;20063;-82
2022/12/09 05:41:34;;;;;;;67.85;18.60;;;-2.40;99.90;;;;;;5112491;27;20622;-81
2022/12/09 05:44:03;;;;;;;64.88;17.88;;;-2.50;99.90;;;;;;5094350;28;20075;-82
2022/12/09 05:46:28;;;;;;;59.85;18.33;;;-2.50;99.90;;;;;;5094546;27;20050;-82
2022/12/09 05:48:54;;;;;;;55.00;17.63;;;-2.50;99.90;;;;;;5099643;28;20046;-83
2022/12/09 05:51:25;;;;;;;55.83;18.15;;;-2.50;99.90;;;;;;5110924;27;20054;-83
2022/12/09 05:53:53;;;;;;;50.47;16.92;;;-2.60;99.90;;;;;;5109379;27;20039;-82
2022/12/09 05:56:21;;;;;;;67.72;18.05;;;-2.60;99.90;;;;;;5075175;28;20134;-82
2022/12/09 05:58:47;;;;;;;59.20;17.17;;;-2.70;99.90;;;;;;5112359;28;20049;-84
2022/12/09 06:01:13;;;;;;;61.60;17.65;;;-2.70;99.90;;;;;;5108525;28;20093;-82
2022/12/09 06:03:39;;;;;;;57.35;17.85;;;-2.60;99.90;;;;;;5090665;27;20097;-82
2022/12/09 06:06:11;;;;;;;54.70;17.48;;;-2.70;99.90;;;;;;5111896;28;20051;-83
2022/12/09 06:08:37;;;;;;;54.97;17.17;;;-2.80;99.90;;;;;;5083011;28;20544;-82
2022/12/09 06:11:04;;;;;;;47.83;16.52;;;-2.80;99.90;;;;;;5093764;28;20035;-82
2022/12/09 06:13:29;;;;;;;54.63;16.95;;;-2.90;99.90;;;;;;5091118;28;20644;-83
2022/12/09 06:16:01;;;;;;;50.33;16.40;;;-2.90;99.90;;;;;;5078112;28;20035;-82
2022/12/09 06:18:26;;;;;;;52.83;16.27;;;-2.90;99.90;;;;;;5103106;28;20042;-83
2022/12/09 06:20:52;;;;;;;64.10;17.08;;;-2.90;99.90;;;;;;5088281;28;20051;-82
2022/12/09 06:23:17;;;;;;;60.58;17.67;;;-3.00;99.90;;;;;;5072357;28;20065;-82
2022/12/09 06:25:44;;;;;;;55.97;17.20;;;-2.90;99.90;;;;;;5112158;28;20051;-82
2022/12/09 06:28:10;;;;;;;58.58;17.85;;;-2.90;99.90;;;;;;5077817;28;20039;-83
2022/12/09 06:30:36;;;;;;;54.28;17.27;;;-2.90;98.50;;;;;;5094902;28;20039;-82
2022/12/09 06:33:02;;;;;;;62.25;19.20;;;-3.00;97.30;;;;;;5091686;27;20053;-82
2022/12/09 06:35:28;;;;;;;51.05;18.08;;;-3.00;95.50;;;;;;5097883;27;20047;-82
2022/12/09 06:37:54;;;;;;;65.07;20.52;;;-3.00;93.80;;;;;;5113863;27;20046;-82
2022/12/09 06:40:23;;;;;;;60.83;19.95;;;-3.10;93.10;;;;;;5066263;27;20117;-81
2022/12/09 06:42:50;;;;;;;60.47;20.35;;;-3.10;92.90;;;;;;5088617;27;20408;-82
2022/12/09 06:45:19;;;;;;;56.58;18.83;;;-3.00;93.10;;;;;;5094884;27;20055;-82
2022/12/09 06:47:45;;;;;;;54.67;18.48;;;-3.10;93.60;;;;;;5115546;27;20066;-83
2022/12/09 06:50:12;;;;;;;65.57;23.58;;;-3.10;93.20;;;;;;5098322;27;20456;-82
2022/12/09 06:52:38;;;;;;;64.90;22.70;;;-3.00;91.60;;;;;;5080156;27;20042;-82
2022/12/09 06:55:05;;;;;;;77.03;28.10;;;-3.10;90.20;;;;;;5100278;27;20054;-83
2022/12/09 06:57:31;;;;;;;84.82;28.38;;;-3.10;89.30;;;;;;5097311;27;20035;-82
2022/12/09 06:59:57;;;;;;;89.75;33.38;;;-3.10;87.20;;;;;;5066916;28;20114;-84
2022/12/09 07:02:23;;;;;;;69.78;27.52;;;-3.10;86.70;;;;;;5087036;27;20164;-83
2022/12/09 07:04:53;;;;;;;72.95;25.30;;;-3.10;87.60;;;;;;5058938;27;20043;-81
2022/12/09 07:07:19;;;;;;;70.65;21.60;;;-3.10;88.60;;;;;;5098761;27;20162;-81
2022/12/09 07:09:44;;;;;;;69.07;23.42;;;-3.10;86.50;;;;;;5089767;27;20059;-81
2022/12/09 07:12:10;;;;;;;64.43;21.50;;;-3.00;84.90;;;;;;5096280;27;20047;-82
2022/12/09 07:14:36;;;;;;;68.47;23.05;;;-3.10;83.70;;;;;;5097575;27;20039;-81
2022/12/09 07:17:02;;;;;;;73.80;25.73;;;-3.10;81.10;;;;;;5111934;27;20062;-79
2022/12/09 07:19:29;;;;;;;74.50;24.38;;;-3.20;79.20;;;;;;5080747;27;20047;-79
2022/12/09 07:21:56;;;;;;;76.45;26.15;;;-3.20;82.60;;;;;;5113971;27;20449;-80
2022/12/09 07:24:22;;;;;;;70.57;22.38;;;-3.20;79.50;;;;;;5114589;27;20043;-81
2022/12/09 07:26:48;;;;;;;75.13;23.30;;;-3.20;76.80;;;;;;5078390;27;20721;-80
2022/12/09 07:29:14;;;;;;;68.05;22.13;;;-3.20;73.40;;;;;;5083827;28;20086;-81
2022/12/09 07:31:40;;;;;;;68.30;20.20;;;-3.30;72.00;;;;;;5110231;27;20067;-82
2022/12/09 07:34:06;;;;;;;72.30;21.80;;;-3.20;70.80;;;;;;5077332;27;20051;-79
2022/12/09 07:36:33;;;;;;;69.38;19.90;;;-3.30;72.00;;;;;;5062513;27;20103;-80
2022/12/09 07:39:02;;;;;;;78.88;22.45;;;-3.30;73.10;;;;;;5114031;27;20074;-83
2022/12/09 07:41:28;;;;;;;73.55;22.08;;;-3.20;75.50;;;;;;5112864;27;20123;-81
2022/12/09 07:43:54;;;;;;;70.57;21.92;;;-3.10;77.90;;;;;;5095487;27;20087;-82
2022/12/09 07:46:21;;;;;;;78.20;23.42;;;-3.10;77.70;;;;;;5089398;27;20055;-85
2022/12/09 07:48:47;;;;;;;77.63;23.85;;;-3.10;75.70;;;;;;5109968;27;20054;-81
2022/12/09 07:51:13;;;;;;;73.25;22.98;;;-3.10;73.20;;;;;;5087037;27;20108;-80
2022/12/09 07:53:39;;;;;;;82.25;26.65;;;-3.10;72.50;;;;;;5114170;27;20047;-83
2022/12/09 07:56:12;;;;;;;89.30;28.50;;;-3.00;76.20;;;;;;5096869;27;20043;-81
2022/12/09 07:58:37;;;;;;;90.13;29.15;;;-3.00;79.20;;;;;;5094701;27;20537;-80
2022/12/09 08:01:08;;;;;;;91.40;29.48;;;-2.90;79.20;;;;;;5096594;27;20035;-84
2022/12/09 08:03:34;;;;;;;78.43;27.10;;;-2.90;81.00;;;;;;5096759;27;20058;-81
2022/12/09 08:06:00;;;;;;;82.15;28.10;;;-2.80;82.90;;;;;;5093480;27;20480;-82
2022/12/09 08:08:26;;;;;;;86.10;28.88;;;-2.80;82.80;;;;;;5091473;28;20054;-80
2022/12/09 08:10:51;;;;;;;92.15;31.35;;;-2.80;81.70;;;;;;5074254;27;20126;-80
2022/12/09 08:13:17;;;;;;;96.13;29.35;;;-2.80;81.60;;;;;;5079461;27;20035;-81
2022/12/09 08:15:42;;;;;;;94.97;29.10;;;-2.90;80.60;;;;;;5113856;27;20180;-79
2022/12/09 08:18:08;;;;;;;93.70;29.38;;;-2.90;79.40;;;;;;5094837;27;20039;-84
2022/12/09 08:20:35;;;;;;;88.82;28.42;;;-2.90;80.90;;;;;;5091075;27;20068;-81
2022/12/09 08:23:01;;;;;;;86.50;26.88;;;-2.80;86.30;;;;;;5113767;27;20099;-80
2022/12/09 08:25:26;;;;;;;85.93;26.08;;;-2.80;88.60;;;;;;5091411;27;20629;-80
2022/12/09 08:27:52;;;;;;;94.72;27.88;;;-2.80;90.30;;;;;;5091078;27;20468;-80
2022/12/09 08:30:18;;;;;;;100.00;28.00;;;-2.60;90.50;;;;;;5068424;27;20050;-79
2022/12/09 08:32:43;;;;;;;93.82;29.73;;;-2.70;90.20;;;;;;5094971;27;20054;-79
2022/12/09 08:35:13;;;;;;;96.65;29.52;;;-2.60;91.90;;;;;;5076580;27;20047;-85
2022/12/09 08:37:43;;;;;;;81.43;26.50;;;-2.50;93.30;;;;;;5093010;27;20047;-83
2022/12/09 08:40:09;;;;;;;88.35;27.73;;;-2.50;93.70;;;;;;5092195;27;20039;-83
2022/12/09 08:42:36;;;;;;;91.32;26.63;;;-2.40;95.00;;;;;;5073906;27;20039;-81
2022/12/09 08:45:03;;;;;;;100.70;28.52;;;-2.20;97.50;;;;;;5094367;27;20047;-80
2022/12/09 08:47:29;;;;;;;90.43;27.67;;;-2.20;99.60;;;;;;5093267;28;20063;-81
2022/12/09 08:49:55;;;;;;;91.30;27.25;;;-2.20;99.90;;;;;;5094433;27;20035;-82
2022/12/09 08:52:20;;;;;;;94.22;28.65;;;-2.00;99.90;;;;;;5086720;28;20050;-81
2022/12/09 08:54:46;;;;;;;97.85;29.60;;;-1.90;99.90;;;;;;5110622;27;20039;-78
2022/12/09 08:57:12;;;;;;;100.95;29.80;;;-1.80;99.90;;;;;;5060910;27;20044;-79
2022/12/09 08:59:37;;;;;;;115.28;32.30;;;-1.80;99.90;;;;;;5100890;27;20085;-81
2022/12/09 09:02:03;;;;;;;104.88;29.95;;;-1.60;99.90;;;;;;5112233;27;20126;-82
2022/12/09 09:04:30;;;;;;;118.72;33.80;;;-1.50;99.90;;;;;;5096216;27;20043;-80
2022/12/09 09:06:56;;;;;;;115.80;34.78;;;-1.40;99.90;;;;;;5093874;28;20033;-80
2022/12/09 09:09:22;;;;;;;117.18;34.40;;;-1.30;99.90;;;;;;5093370;27;20039;-80
2022/12/09 09:11:47;;;;;;;116.28;32.72;;;-1.20;99.90;;;;;;5096399;27;20087;-81
2022/12/09 09:14:14;;;;;;;124.75;34.40;;;-1.00;99.90;;;;;;5076049;27;20079;-84
2022/12/09 09:16:42;;;;;;;160.60;39.10;;;-0.80;99.90;;;;;;5079797;27;20046;-82
2022/12/09 09:19:14;;;;;;;168.48;39.20;;;-0.60;99.90;;;;;;5112658;27;20491;-82
2022/12/09 09:21:39;;;;;;;203.20;42.03;;;-0.40;99.90;;;;;;5100109;28;20126;-82
2022/12/09 09:24:15;;;;;;;247.77;43.80;;;-0.30;99.90;;;;;;5105264;28;20537;-81
2022/12/09 09:26:42;;;;;;;247.20;43.42;;;-0.20;99.90;;;;;;5104475;27;20085;-81
2022/12/09 09:29:10;;;;;;;236.80;45.67;;;-0.10;99.90;;;;;;5112582;27;20047;-80
2022/12/09 09:31:36;;;;;;;204.00;43.88;;;0.00;99.90;;;;;;5109298;27;20037;-81
2022/12/09 09:34:01;;;;;;;309.60;49.97;;;0.00;99.90;;;;;;5087398;27;20114;-80
2022/12/09 09:36:27;;;;;;;357.13;53.88;;;0.00;99.90;;;;;;5075753;28;20051;-80
2022/12/09 09:38:54;;;;;;;365.00;52.60;;;0.10;99.90;;;;;;5076634;28;20079;-80
2022/12/09 09:41:32;;;;;;;365.10;53.75;;;0.20;99.90;;;;;;5095997;27;20039;-85
2022/12/09 09:43:58;;;;;;;373.75;52.40;;;0.30;99.90;;;;;;5084998;27;20047;-80
2022/12/09 09:46:38;;;;;;;516.60;63.10;;;0.40;99.90;;;;;;5095285;27;20455;-83
2022/12/09 09:49:09;;;;;;;535.38;63.92;;;0.40;99.90;;;;;;5094385;28;20508;-80
2022/12/09 09:51:35;;;;;;;496.67;68.18;;;0.40;99.90;;;;;;5128565;28;20123;-81
2022/12/09 09:54:01;;;;;;;493.20;65.30;;;0.40;99.90;;;;;;5078223;28;20520;-81
2022/12/09 09:56:52;;;;;;;511.35;63.13;;;0.40;99.90;;;;;;5095409;28;20067;-80
2022/12/09 09:59:29;;;;;;;447.50;59.13;;;0.50;99.90;;;;;;5102142;28;20048;-81
2022/12/09 10:02:14;;;;;;;429.23;58.20;;;0.50;99.90;;;;;;5105712;28;20606;-80
2022/12/09 10:04:53;;;;;;;441.83;58.08;;;0.50;99.90;;;;;;5111281;28;20209;-79
2022/12/09 10:07:27;;;;;;;470.58;62.75;;;0.50;99.90;;;;;;5094576;28;20511;-80
2022/12/09 10:10:20;;;;;;;421.00;55.85;;;0.60;99.90;;;;;;5077791;28;20540;-81
2022/12/09 10:12:46;;;;;;;435.48;57.88;;;0.60;99.90;;;;;;5113329;27;20046;-82
2022/12/09 10:15:22;;;;;;;401.35;56.63;;;0.60;99.90;;;;;;5106401;27;20051;-80
2022/12/09 10:17:54;;;;;;;477.58;59.45;;;0.50;99.90;;;;;;5096760;27;20046;-81
2022/12/09 10:20:30;;;;;;;472.15;57.42;;;0.50;99.90;;;;;;5082718;27;20557;-82
2022/12/09 10:23:02;;;;;;;464.17;57.22;;;0.50;99.90;;;;;;5101237;27;20404;-78
2022/12/09 10:25:34;;;;;;;412.45;53.58;;;0.60;99.90;;;;;;5116991;27;20066;-80
2022/12/09 10:28:20;;;;;;;371.35;52.40;;;0.60;99.90;;;;;;5115817;27;20116;-79
2022/12/09 10:30:50;;;;;;;258.75;44.83;;;0.60;99.90;;;;;;5091404;27;20039;-80
2022/12/09 10:33:19;;;;;;;321.10;48.25;;;0.60;99.90;;;;;;5117813;27;20051;-79
2022/12/09 10:35:45;;;;;;;397.27;51.28;;;0.50;99.90;;;;;;5100627;27;20126;-80
2022/12/09 10:38:14;;;;;;;308.80;47.05;;;0.60;99.90;;;;;;5115731;27;20445;-79
2022/12/09 10:40:42;;;;;;;308.63;51.03;;;0.60;99.90;;;;;;5098603;27;20144;-78
2022/12/09 10:43:38;;;;;;;462.95;53.80;;;0.60;99.90;;;;;;5104765;27;20130;-77
2022/12/09 10:46:12;;;;;;;474.42;54.92;;;0.60;99.90;;;;;;5105982;27;20055;-79
2022/12/09 10:48:47;;;;;;;356.85;48.65;;;0.70;99.90;;;;;;5092552;27;20047;-82
2022/12/09 10:51:14;;;;;;;438.13;53.17;;;0.70;99.90;;;;;;5091426;27;20091;-82
2022/12/09 10:53:51;;;;;;;301.42;48.50;;;0.70;99.90;;;;;;5091867;27;20182;-83
2022/12/09 10:56:26;;;;;;;344.30;48.97;;;0.90;99.90;;;;;;5087238;27;20051;-85
2022/12/09 10:59:22;;;;;;;479.93;55.57;;;0.80;99.90;;;;;;5110189;27;20047;-82
2022/12/09 11:01:50;;;;;;;396.60;49.58;;;0.90;99.90;;;;;;5093174;27;20062;-82
2022/12/09 11:04:24;;;;;;;407.70;51.78;;;0.80;99.90;;;;;;5107359;27;20039;-83
2022/12/09 11:06:51;;;;;;;373.83;48.55;;;0.80;99.90;;;;;;5090058;27;20165;-82
2022/12/09 11:09:25;;;;;;;303.42;47.50;;;0.80;99.90;;;;;;5091041;27;20035;-82
2022/12/09 11:11:51;;;;;;;244.95;43.53;;;0.80;99.90;;;;;;5090650;27;20050;-82
2022/12/09 11:14:21;;;;;;;302.52;44.30;;;0.80;99.90;;;;;;5106854;27;20404;-81
2022/12/09 11:17:16;;;;;;;230.55;41.58;;;0.80;99.90;;;;;;5104010;27;20173;-80
2022/12/09 11:19:44;;;;;;;235.20;42.88;;;0.80;99.90;;;;;;5104842;27;20052;-85
2022/12/09 11:22:13;;;;;;;243.90;44.03;;;0.70;99.90;;;;;;5092238;27;20047;-82
2022/12/09 11:24:41;;;;;;;241.38;48.15;;;0.80;99.90;;;;;;5102597;28;20051;-81
2022/12/09 11:27:30;;;;;;;192.35;42.75;;;0.80;99.90;;;;;;5131941;27;20083;-80
2022/12/09 11:30:17;;;;;;;190.88;41.05;;;0.90;99.90;;;;;;5090419;27;20547;-76
2022/12/09 11:33:14;;;;;;;199.63;40.72;;;0.90;99.90;;;;;;5109292;27;20049;-84
2022/12/09 11:35:42;;;;;;;226.23;44.40;;;0.90;99.90;;;;;;5091964;27;20051;-82
2022/12/09 11:38:26;;;;;;;199.52;41.83;;;0.90;99.90;;;;;;5087996;27;20058;-88
2022/12/09 11:41:10;;;;;;;141.32;36.72;;;0.90;99.90;;;;;;5090917;27;20407;-81
2022/12/09 11:43:39;;;;;;;161.68;37.25;;;0.90;99.90;;;;;;5094512;27;20057;-84
2022/12/09 11:46:29;;;;;;;154.13;37.97;;;0.80;99.90;;;;;;5091494;27;20082;-81
2022/12/09 11:49:14;;;;;;;143.98;36.30;;;0.70;99.90;;;;;;5087934;27;20079;-81
2022/12/09 11:51:43;;;;;;;156.73;37.88;;;0.70;99.90;;;;;;5098369;27;20050;-86
2022/12/09 11:54:39;;;;;;;156.38;37.15;;;0.80;99.90;;;;;;5084892;27;20102;-82
2022/12/09 11:57:13;;;;;;;140.55;35.88;;;0.80;99.90;;;;;;5077722;27;20059;-82
2022/12/09 11:59:48;;;;;;;179.82;38.25;;;0.80;99.90;;;;;;5114958;27;20035;-84
2022/12/09 12:02:29;;;;;;;186.65;39.33;;;0.80;99.90;;;;;;5115521;27;20138;-83
2022/12/09 12:05:01;;;;;;;179.05;40.38;;;0.90;99.90;;;;;;5093752;27;20078;-83
2022/12/09 12:07:48;;;;;;;183.98;40.45;;;0.90;99.90;;;;;;5113872;27;20043;-82
2022/12/09 12:10:24;;;;;;;178.85;39.10;;;0.90;99.90;;;;;;5111621;27;20047;-82
2022/12/09 12:13:03;;;;;;;162.45;40.33;;;0.90;99.90;;;;;;5111552;27;20073;-82
2022/12/09 12:15:33;;;;;;;193.93;40.30;;;1.00;99.90;;;;;;5112910;27;20055;-83
2022/12/09 12:18:03;;;;;;;146.88;37.75;;;1.00;99.90;;;;;;5092188;28;20047;-82
2022/12/09 12:20:51;;;;;;;154.57;39.22;;;1.10;99.90;;;;;;5089291;27;20044;-83
2022/12/09 12:23:31;;;;;;;169.07;41.97;;;1.20;99.90;;;;;;5115347;27;20393;-82
2022/12/09 12:26:06;;;;;;;154.60;40.08;;;1.20;99.90;;;;;;5102270;27;20050;-82
2022/12/09 12:28:50;;;;;;;138.43;37.15;;;1.10;99.90;;;;;;5088372;27;20086;-82
2022/12/09 12:31:30;;;;;;;149.75;38.33;;;1.10;99.90;;;;;;5114028;27;20043;-82
2022/12/09 12:34:05;;;;;;;150.82;38.95;;;1.00;99.90;;;;;;5091145;27;20051;-84
2022/12/09 12:36:55;;;;;;;154.43;38.53;;;1.00;99.90;;;;;;5092219;27;20062;-82
2022/12/09 12:39:39;;;;;;;149.55;38.03;;;1.10;99.90;;;;;;5114309;27;20043;-84